Port Dufferin, Canada
Current Conditions -  °F | °C
As of 12:00 AM on Wednesday 22 Oct 2014 (Local Time) from CYHZ Reporting Station
Broken Clouds Broken Clouds  
Wind Chill: 44°   Ceiling: 20000
Heat Index: 46°   Visibility: 15mi
Dew Point: 41°   Wind: 6mph
Humidity: 81%   Direction: 80°E
Pressure: 30.24"   Gusts: NA
Location:  44.92°N, 62.38°W
Report Text: CYHZ 220300Z 08005KT 15SM BKN200 08/05 A3024 RMK CI7 SLP244
Loading
Personal Weather Stations






























Interactive Weather Map
Tropical Storm Tracking
New forecast layout! Learn more

10-Day Weather Forecast

Advertisements
Track Severe Weather on mobile